x

Caribbean Valley - 76 Nm Ssw Of Plymouth, Montserrat (42060) Wave Buoy

11:50am - Mon 24th Nov 2014 All times are AST. -4 hours from GMT.

  • Sig Wave height 6.9ft
  • Swell Direction
  • Peak Period 6s
  • Average Period 6s
  • Wind
    22mph, 27mph gusts
  • Sea Temp 83°f
  • Air Temp 82°f
  • Sea Pressure 1015.5mb
  • Caribbean Valley - 76 Nm Ssw Of Plymouth, Montserrat
  • Caribbean Valley - 76 Nm Ssw Of Plymouth, Montserrat

More Historic Weather Station data

Upgrade to MSW Pro to gain access to the past 30 days of data for over 8000 Wavebouys and Weather Stations around the globe.

Join Pro

Comparision Forecast

View Surf forecast
   
Mon 11/24 11:50am 7ft 6s 6s 22 27 mph 1015.5mb 83f 82f
10:50am 6.5ft 7s  -  22 27 mph 1016mb 83f 82f
9:50am 6ft 6s 6s 20 25 mph 1016.6mb 83f 82f
8:50am 7ft 7s 6s 18 22 mph 1016.4mb 83f 80f
7:50am 6.5ft 7s 6s 25 27 mph 1015.3mb 83f 82f
6:50am 6.5ft 7s 6s 22 27 mph 1014.3mb 83f 82f
5:50am 6.5ft 7s 5s 22 29 mph 1013.8mb 83f 82f
4:50am 6.5ft 6s 6s 22 29 mph 1013.1mb 83f 82f
3:50am 6.5ft 6s 5s 25 29 mph 1012.9mb 83f 82f
2:50am 6ft 6s 5s 22 27 mph 1013mb 83f 82f
1:50am 6.5ft 6s 6s 22 25 mph 1013.7mb 83f 81f
12:50am 7ft 7s 6s 25 29 mph 1014.3mb 83f 81f
Sun 11/23 11:50pm 7.5ft 6s 6s 22 27 mph 1014.5mb 83f 82f
10:50pm 7.5ft 7s 6s 22 27 mph 1014.7mb 83f 82f
9:50pm 7ft 7s 6s 22 27 mph 1014.7mb 83f 82f
8:50pm 7ft 6s 6s 25 29 mph 1014.3mb 83f 82f
7:50pm 7ft 7s 6s 22 29 mph 1013.7mb 83f 82f
6:50pm 7ft 7s 6s 22 27 mph 1013.7mb 83f 82f
5:50pm 6.5ft 7s 6s 25 31 mph 1013.1mb 83f 82f
4:50pm 7ft 7s 6s 22 27 mph 1012.8mb 83f 82f
3:50pm 6.5ft 7s 6s 22 27 mph 1012.9mb 83f 82f
2:50pm 7ft 7s 6s 20 25 mph 1013.2mb 83f 82f
1:50pm 7ft 7s 6s 22 27 mph 1013.8mb 83f 82f
12:50pm 7ft 7s 6s 22 27 mph 1014.5mb 83f 82f
11:50am 6.5ft 6s  -  22 27 mph 1015.4mb 83f 83f
10:50am 6.5ft 6s 6s 22 27 mph 1015.7mb 83f 83f
9:50am 7ft 7s 6s 20 27 mph 1015.8mb 83f 82f
8:50am 7ft 9s 6s 20 22 mph 1015.5mb 83f 82f
7:50am 7ft 6s 6s 22 27 mph 1014.7mb 83f 82f
6:50am 6ft 6s 6s 22 27 mph 1013.8mb 83f 82f
5:50am 7ft 7s 6s 22 27 mph 1013.3mb 83f 82f
4:50am 7ft 6s 6s 22 25 mph 1013mb 83f 81f
3:50am 7ft 6s 6s 20 25 mph 1013mb 83f 82f
2:50am 6.5ft 6s 6s 22 27 mph 1013mb 83f 82f
1:50am 7ft 9s 6s 22 27 mph 1013.4mb 83f 82f
12:50am 7ft 10s 6s 25 29 mph 1014.1mb 83f 82f
Sat 11/22 11:50pm 6.5ft 6s 6s 22 27 mph 1014.6mb 83f 82f
10:50pm 7ft 6s 6s 22 27 mph 1014.7mb 83f 82f
9:50pm 7ft 6s 6s 22 27 mph 1014.5mb 83f 83f
8:50pm 6ft 7s 6s 22 25 mph 1013.9mb 83f 83f
7:50pm 7ft 9s 6s 22 27 mph 1013.6mb 83f 83f
6:50pm 6.5ft 6s 6s 22 25 mph 1013.1mb 83f 83f
5:50pm 6.5ft 6s 6s 20 25 mph 1012.9mb 83f 83f
4:50pm 6ft 10s 6s 20 22 mph 1012.7mb 83f 82f
3:50pm 6.5ft 10s 6s 18 22 mph 1012.6mb 83f 82f
2:50pm 6.5ft 10s 6s 20 25 mph 1012.6mb 83f 82f
1:50pm 6ft 10s 6s 18 22 mph 1012.9mb 83f 82f
12:50pm 6ft 10s 5s 22 27 mph 1013.4mb 83f 80f
11:50am 6ft 9s 6s 20 22 mph 1014.5mb 83f 81f
10:50am 6ft 6s 5s 22 27 mph 1014.8mb 83f 82f
9:50am 6ft 10s 5s 22 25 mph 1015.1mb 83f 82f
8:50am 6ft 10s 6s 20 25 mph 1015.1mb 83f 82f
7:50am 6ft 9s 6s 20 25 mph 1014.1mb 83f 81f
6:50am 6.5ft 10s 6s 22 27 mph 1013.5mb 83f 80f
5:50am 6ft 10s 5s 22 25 mph 1013.1mb 83f 80f
4:50am 5ft 10s 5s 20 25 mph 1012.7mb 83f 81f
3:50am 5ft 10s 5s 20 25 mph 1012.4mb 83f 81f
2:50am 5ft 10s 6s 18 20 mph 1012.8mb 83f 81f
1:50am 5.5ft 10s 6s 18 20 mph 1013.5mb 83f 81f
12:50am 5ft 10s 5s 18 20 mph 1014mb 83f 81f
Fri 11/21 10:50pm 5.5ft 7s 6s 16 20 mph 1015mb 83f 82f
9:50pm 5ft 10s 5s 16 20 mph 1014.8mb 83f 82f
8:50pm 5ft 10s 6s 18 20 mph 1014.2mb 83f 82f
7:50pm 5.5ft 10s 6s 11 13 mph 1014.1mb 83f 80f
6:50pm 5.5ft 10s 6s 13 18 mph 1013.6mb 83f 80f
5:50pm 6ft 6s 6s 16 18 mph 1013.1mb 83f 80f
4:50pm 6ft 10s 6s 18 20 mph 1013.6mb 84f 78f
3:50pm 6ft 6s 6s 18 22 mph 1012.9mb 84f 82f
2:50pm 5.5ft 10s 6s 20 25 mph 1012.5mb 84f 82f
1:50pm 5.5ft 7s 6s 16 20 mph 1013.2mb 83f 81f
12:50pm 5.5ft 10s 6s 18 22 mph 1013.8mb 83f 82f
11:50am 6ft 8s 6s 13
mph
1014.6mb 83f 81f
10:50am 6.5ft 9s 6s 7 9 mph 1016mb 83f 78f
9:50am 6ft 10s 6s 22 38 mph 1015.7mb 83f 81f
8:50am 6.5ft 7s 6s 18 22 mph 1015mb 83f 82f
7:50am 6.5ft 6s 6s 18 22 mph 1014.4mb 83f 82f
6:50am 6ft 7s 6s 20 22 mph 1013.6mb 83f 82f
5:50am 6ft 7s 6s 16 18 mph 1012.8mb 83f 82f
4:50am 6.5ft 8s 6s 18 22 mph 1012.7mb 83f 82f
3:50am 6ft 7s 6s 16 18 mph 1012.5mb 83f 81f
2:50am 6.5ft 6s 6s 20 25 mph 1012.7mb 83f 82f
1:50am 6.5ft 7s 6s 18 22 mph 1013.5mb 83f 82f
12:50am 6.5ft 7s 6s 20 27 mph 1013.7mb 83f 82f
Thu 11/20 11:50pm 6.5ft 6s 6s 20 25 mph 1014.2mb 83f 82f
10:50pm 7ft 6s 6s 25 27 mph 1014.5mb 83f 82f
9:50pm 7ft 7s 6s 25 27 mph 1014.4mb 83f 82f
8:50pm 7ft 7s 5s 25 31 mph 1014.1mb 83f 82f
7:50pm 6ft 7s 5s 22 27 mph 1013.8mb 84f 83f
6:50pm 6ft 8s 5s 22 25 mph 1013.3mb 84f 82f
5:50pm 7ft 6s 6s 22 27 mph 1012.5mb 84f 82f
4:50pm 6.5ft 7s 6s 20 25 mph 1011.9mb 84f 83f